createdAt,value
2022-12-20T00:28:48.905Z,82.67
2022-12-20T00:58:48.895Z,82.57
2022-12-20T01:28:48.903Z,82.67
2022-12-20T01:58:48.902Z,82.62
2022-12-20T02:28:48.904Z,82.66
2022-12-20T02:58:48.901Z,82.83
2022-12-20T03:28:48.920Z,82.7
2022-12-20T03:58:48.914Z,82.85
2022-12-20T04:28:48.938Z,82.69
2022-12-20T04:58:48.943Z,82.83
2022-12-20T05:28:48.944Z,82.83
2022-12-20T05:58:48.945Z,82.9
2022-12-20T06:28:48.951Z,83.02
2022-12-20T06:58:48.953Z,83.13
2022-12-20T07:28:48.972Z,83.02
2022-12-20T07:58:48.967Z,83.1
2022-12-20T08:28:48.972Z,83.08
2022-12-20T08:58:48.970Z,82.85
2022-12-20T09:28:48.977Z,82.82
2022-12-20T09:58:48.981Z,82.5
2022-12-20T10:28:53.854Z,82.5
2022-12-20T10:58:48.999Z,82.18
2022-12-20T11:28:48.995Z,81.93
2022-12-20T11:58:49.029Z,81.67
2022-12-20T12:28:49.010Z,81.8
2022-12-20T12:58:49.319Z,81.6
2022-12-20T13:28:49.039Z,81.22
2022-12-20T13:58:49.010Z,81.39
2022-12-20T14:28:49.065Z,81.24
2022-12-20T14:58:49.036Z,81.4
2022-12-20T15:28:49.060Z,81.37
2022-12-20T15:58:49.050Z,81.5
2022-12-20T16:28:49.034Z,81.58
2022-12-20T16:59:17.927Z,81.51
2022-12-20T17:28:49.055Z,81.73
2022-12-20T17:58:49.043Z,81.86
2022-12-20T18:28:49.061Z,82.12
2022-12-20T18:58:49.056Z,81.86
2022-12-20T19:28:49.067Z,81.95
2022-12-20T19:58:49.067Z,82.06
2022-12-20T20:28:49.079Z,82.1
2022-12-20T20:58:49.095Z,82.05
2022-12-20T21:28:49.091Z,82.02
2022-12-20T21:58:49.078Z,82.02
2022-12-20T22:28:49.092Z,81.91
2022-12-20T22:58:49.077Z,82.25
2022-12-20T23:28:49.110Z,82.67
2022-12-20T23:58:49.096Z,83.11
